Time;durP1;ratioP1;P1;durP2;ratioP2;P2;SDS_P1;SDS_P2;PMS_P1;PMS_P2;Temp;Humidity;BMP_temperature;BMP_pressure;BME280_temperature;BME280_humidity;BME280_pressure;Samples;Min_cycle;Max_cycle;Signal;HPM_P1;HPM_P2
2023/10/03 00:00:24;;;;;;;35.70;17.42;;;;;16.20;98597.00;;;;5061397;28;20043;-65
2023/10/03 00:02:54;;;;;;;42.15;21.52;;;;;16.20;98604.00;;;;5056800;28;20536;-66
2023/10/03 00:05:23;;;;;;;36.83;16.85;;;;;16.10;98598.00;;;;5061576;28;20056;-71
2023/10/03 00:07:53;;;;;;;30.23;14.38;;;;;16.00;98601.00;;;;5075761;28;20048;-68
2023/10/03 00:10:20;;;;;;;30.65;14.70;;;;;16.00;98598.00;;;;5072722;28;20052;-66
2023/10/03 00:12:51;;;;;;;32.38;15.80;;;;;16.10;98596.00;;;;5067759;28;20065;-65
2023/10/03 00:15:21;;;;;;;33.55;15.32;;;;;16.10;98603.00;;;;5066882;28;20033;-66
2023/10/03 00:17:49;;;;;;;31.10;15.73;;;;;16.00;98602.00;;;;5058457;28;20144;-65
2023/10/03 00:20:17;;;;;;;30.80;14.10;;;;;16.00;98593.00;;;;5052980;28;20102;-68
2023/10/03 00:22:50;;;;;;;46.25;22.40;;;;;15.90;98580.00;;;;5051694;28;20045;-65
2023/10/03 00:25:18;;;;;;;46.75;23.58;;;;;15.90;98576.00;;;;5050723;28;20053;-65
2023/10/03 00:27:46;;;;;;;30.92;14.68;;;;;15.80;98574.00;;;;5052163;28;20044;-65
2023/10/03 00:30:16;;;;;;;35.67;15.70;;;;;15.80;98582.00;;;;5052286;28;20041;-65
2023/10/03 00:32:42;;;;;;;29.55;14.13;;;;;15.80;98582.00;;;;5051900;28;20069;-65
2023/10/03 00:35:11;;;;;;;32.72;15.18;;;;;15.70;98579.00;;;;5050758;28;20045;-65
2023/10/03 00:37:39;;;;;;;30.73;14.63;;;;;15.60;98570.00;;;;5050533;28;20049;-66
2023/10/03 00:40:27;;;;;;;30.52;14.10;;;;;15.60;98578.00;;;;5050575;28;20118;-66
2023/10/03 00:42:57;;;;;;;34.03;16.30;;;;;15.60;98575.00;;;;5052235;28;20041;-65
2023/10/03 00:45:31;;;;;;;30.75;13.82;;;;;15.60;98584.00;;;;5051851;28;20037;-65
2023/10/03 00:48:11;;;;;;;28.33;13.85;;;;;15.70;98568.00;;;;5051741;28;20526;-65
2023/10/03 00:50:38;;;;;;;31.65;14.35;;;;;15.70;98574.00;;;;5053342;28;20045;-65
2023/10/03 00:53:12;;;;;;;31.48;13.73;;;;;15.90;98568.00;;;;5054289;28;20065;-64
2023/10/03 00:55:42;;;;;;;25.27;12.83;;;;;16.00;98574.00;;;;5053651;28;20422;-66
2023/10/03 01:00:43;;;;;;;23.23;12.50;;;;;16.30;98555.00;;;;5054217;28;20060;-64
2023/10/03 01:03:36;;;;;;;19.15;10.40;;;;;16.60;98553.00;;;;5053933;28;20559;-65
2023/10/03 01:06:08;;;;;;;21.95;10.95;;;;;16.70;98559.00;;;;5054245;28;20079;-65
2023/10/03 01:08:42;;;;;;;21.65;10.98;;;;;16.90;98557.00;;;;5055323;28;20080;-65
2023/10/03 01:11:17;;;;;;;20.97;10.50;;;;;17.00;98553.00;;;;5054092;28;20048;-64
2023/10/03 01:13:47;;;;;;;22.13;9.95;;;;;17.10;98557.00;;;;5053021;28;20288;-66
2023/10/03 01:16:21;;;;;;;18.63;9.93;;;;;17.20;98551.00;;;;5053559;28;20056;-65
2023/10/03 01:18:48;;;;;;;17.30;8.60;;;;;17.40;98529.00;;;;5055016;28;20238;-65
2023/10/03 01:21:15;;;;;;;17.92;9.02;;;;;17.50;98528.00;;;;5053690;28;20080;-64
2023/10/03 01:23:42;;;;;;;14.18;7.75;;;;;17.60;98522.00;;;;5053647;28;20072;-64
2023/10/03 01:26:13;;;;;;;15.23;8.52;;;;;17.80;98524.00;;;;5053653;28;20049;-64
2023/10/03 01:28:39;;;;;;;14.38;7.97;;;;;17.90;98526.00;;;;5053669;28;20395;-64
2023/10/03 01:31:06;;;;;;;13.85;8.07;;;;;18.00;98524.00;;;;5054555;28;20041;-65
2023/10/03 01:33:34;;;;;;;14.38;7.82;;;;;18.10;98523.00;;;;5053482;28;20476;-65
2023/10/03 01:36:03;;;;;;;14.63;7.57;;;;;18.20;98517.00;;;;5053774;28;20049;-64
2023/10/03 01:38:30;;;;;;;12.25;7.63;;;;;18.30;98508.00;;;;5054456;28;20049;-64
2023/10/03 01:40:58;;;;;;;13.90;6.80;;;;;18.30;98514.00;;;;5055204;28;20041;-66
2023/10/03 01:43:24;;;;;;;10.35;6.82;;;;;18.40;98507.00;;;;5053636;28;20050;-70
2023/10/03 01:45:52;;;;;;;12.13;7.65;;;;;18.50;98498.00;;;;5053527;28;20040;-65
2023/10/03 01:48:20;;;;;;;11.30;7.05;;;;;18.50;98502.00;;;;5053501;28;20084;-65
2023/10/03 01:50:50;;;;;;;17.60;7.95;;;;;18.60;98501.00;;;;5053313;28;20162;-65
2023/10/03 01:53:19;;;;;;;17.77;7.80;;;;;18.50;98505.00;;;;5054016;28;20170;-65
2023/10/03 01:55:46;;;;;;;13.98;7.65;;;;;18.50;98500.00;;;;5053358;28;20431;-64
2023/10/03 01:58:13;;;;;;;23.08;8.55;;;;;18.50;98496.00;;;;5053710;28;20152;-65
2023/10/03 02:00:40;;;;;;;11.82;7.22;;;;;18.60;98496.00;;;;5052066;28;20072;-65
2023/10/03 02:03:11;;;;;;;11.85;7.13;;;;;18.60;98493.00;;;;5053010;28;20059;-68
2023/10/03 02:05:41;;;;;;;12.82;7.30;;;;;18.70;98492.00;;;;5052372;28;20048;-65
2023/10/03 02:08:20;;;;;;;14.95;6.57;;;;;18.80;98494.00;;;;5052542;28;20041;-65
2023/10/03 02:10:49;;;;;;;10.75;6.65;;;;;18.80;98496.00;;;;5052581;28;20045;-65
2023/10/03 02:13:17;;;;;;;12.52;6.55;;;;;18.80;98498.00;;;;5052356;28;20049;-65
2023/10/03 02:15:45;;;;;;;9.80;6.40;;;;;18.80;98488.00;;;;5051948;28;20047;-66
2023/10/03 02:18:13;;;;;;;12.13;6.43;;;;;18.80;98489.00;;;;5052195;28;20049;-65
2023/10/03 02:20:47;;;;;;;11.13;6.15;;;;;18.90;98487.00;;;;5052303;28;20573;-65
2023/10/03 02:23:19;;;;;;;10.52;5.97;;;;;18.90;98485.00;;;;5052233;28;20565;-65
2023/10/03 02:25:47;;;;;;;11.52;6.75;;;;;19.00;98480.00;;;;5051904;28;20127;-67
2023/10/03 02:28:18;;;;;;;10.13;6.18;;;;;19.00;98485.00;;;;5052205;28;20049;-66
2023/10/03 02:30:45;;;;;;;13.32;6.22;;;;;19.00;98478.00;;;;5051991;28;20132;-65
2023/10/03 02:33:15;;;;;;;12.77;6.10;;;;;19.10;98480.00;;;;5051999;28;20103;-65
2023/10/03 02:35:44;;;;;;;10.77;6.25;;;;;19.10;98486.00;;;;5051372;28;20051;-64
2023/10/03 02:38:23;;;;;;;12.40;6.45;;;;;19.10;98475.00;;;;5053208;28;20501;-65
2023/10/03 02:40:54;;;;;;;9.40;5.88;;;;;19.20;98479.00;;;;5051923;28;20417;-64
2023/10/03 02:43:21;;;;;;;9.45;5.70;;;;;19.20;98471.00;;;;5052146;28;20513;-64
2023/10/03 02:45:48;;;;;;;9.10;5.63;;;;;19.30;98468.00;;;;5051688;28;20410;-66
2023/10/03 02:48:15;;;;;;;10.23;6.05;;;;;19.40;98472.00;;;;5051823;28;20045;-65
2023/10/03 02:50:46;;;;;;;10.20;6.15;;;;;19.40;98466.00;;;;5051441;28;20037;-65
2023/10/03 02:53:17;;;;;;;10.02;5.75;;;;;19.40;98464.00;;;;5035302;28;20052;-65
2023/10/03 02:55:45;;;;;;;8.02;5.88;;;;;19.40;98465.00;;;;5052170;28;20040;-64
2023/10/03 02:58:13;;;;;;;9.27;5.88;;;;;19.50;98461.00;;;;5052709;28;20120;-65
2023/10/03 03:00:41;;;;;;;10.68;6.20;;;;;19.50;98457.00;;;;5051424;28;20132;-65
2023/10/03 03:03:10;;;;;;;8.25;5.50;;;;;19.50;98454.00;;;;5051385;28;20055;-64
2023/10/03 03:05:37;;;;;;;10.88;5.53;;;;;19.50;98457.00;;;;5051003;28;20067;-66
2023/10/03 03:10:57;;;;;;;12.13;6.22;;;;;19.50;98466.00;;;;5051265;28;20426;-68
2023/10/03 03:13:26;;;;;;;8.73;5.55;;;;;19.50;98466.00;;;;5050923;28;20049;-65
2023/10/03 03:15:59;;;;;;;9.65;5.90;;;;;19.50;98466.00;;;;5052157;28;20456;-65
2023/10/03 03:18:49;;;;;;;10.32;5.18;;;;;19.60;98464.00;;;;5052954;28;20045;-65
2023/10/03 03:21:20;;;;;;;9.88;5.88;;;;;19.60;98459.00;;;;5052762;28;20119;-66
2023/10/03 03:24:00;;;;;;;9.48;5.90;;;;;19.70;98468.00;;;;5050709;28;20076;-65
2023/10/03 03:26:36;;;;;;;8.23;5.43;;;;;19.70;98463.00;;;;5052536;28;20094;-65
2023/10/03 03:29:31;;;;;;;8.50;5.78;;;;;19.70;98468.00;;;;5051075;28;20049;-65
2023/10/03 03:31:58;;;;;;;7.22;5.43;;;;;19.70;98459.00;;;;5053111;28;20059;-66
2023/10/03 03:34:25;;;;;;;8.70;5.40;;;;;19.70;98458.00;;;;5052748;28;20074;-65
2023/10/03 03:36:55;;;;;;;9.50;5.40;;;;;19.70;98458.00;;;;5052257;28;20048;-67
2023/10/03 03:39:26;;;;;;;10.85;6.00;;;;;19.70;98453.00;;;;5051911;28;20052;-66
2023/10/03 03:41:52;;;;;;;9.38;5.40;;;;;19.80;98455.00;;;;5052108;28;20087;-66
2023/10/03 03:44:19;;;;;;;7.47;5.13;;;;;19.80;98456.00;;;;5051720;28;20156;-65
2023/10/03 03:46:46;;;;;;;8.05;5.18;;;;;19.70;98449.00;;;;5050793;28;20059;-65
2023/10/03 03:49:14;;;;;;;8.35;5.05;;;;;19.70;98450.00;;;;5052204;28;20541;-65
2023/10/03 03:51:41;;;;;;;7.68;5.53;;;;;19.70;98447.00;;;;5052480;28;20493;-66
2023/10/03 03:54:12;;;;;;;6.43;5.35;;;;;19.80;98446.00;;;;5050872;28;20049;-64
2023/10/03 03:56:40;;;;;;;8.88;5.55;;;;;19.80;98450.00;;;;5050822;28;20394;-65
2023/10/03 03:59:08;;;;;;;9.65;5.25;;;;;19.80;98446.00;;;;5052084;28;20131;-65
2023/10/03 04:01:35;;;;;;;8.85;5.15;;;;;19.80;98444.00;;;;5050528;28;20533;-66
2023/10/03 04:04:03;;;;;;;6.90;4.80;;;;;19.80;98452.00;;;;5051357;28;20045;-65
2023/10/03 04:06:31;;;;;;;8.18;5.03;;;;;19.80;98445.00;;;;5051908;28;20056;-65
2023/10/03 04:08:58;;;;;;;9.90;7.10;;;;;19.80;98445.00;;;;5051817;28;20076;-65
2023/10/03 04:11:33;;;;;;;7.38;5.25;;;;;19.90;98435.00;;;;5051709;28;20508;-65
2023/10/03 04:14:00;;;;;;;8.55;5.20;;;;;19.90;98441.00;;;;5051269;28;20049;-65
2023/10/03 04:16:28;;;;;;;6.18;4.93;;;;;19.90;98434.00;;;;5051648;28;20513;-65
2023/10/03 04:18:55;;;;;;;8.00;5.28;;;;;19.90;98431.00;;;;5050497;28;20044;-67
2023/10/03 04:21:26;;;;;;;9.82;5.90;;;;;19.90;98432.00;;;;5051850;28;20079;-67
2023/10/03 04:23:53;;;;;;;10.98;6.40;;;;;19.90;98426.00;;;;5051455;28;20644;-67
2023/10/03 04:26:20;;;;;;;9.80;5.28;;;;;19.80;98424.00;;;;5055572;28;20044;-66
2023/10/03 04:28:47;;;;;;;10.45;5.60;;;;;19.80;98427.00;;;;5054671;28;20112;-67
2023/10/03 04:31:14;;;;;;;11.20;6.10;;;;;19.80;98426.00;;;;5055668;28;20037;-67
2023/10/03 04:33:41;;;;;;;8.02;5.15;;;;;19.80;98426.00;;;;5054865;28;20037;-67
2023/10/03 04:36:09;;;;;;;7.65;5.30;;;;;19.80;98427.00;;;;5055539;28;20102;-67
2023/10/03 04:38:36;;;;;;;9.25;5.65;;;;;19.80;98424.00;;;;5055422;28;20073;-67
2023/10/03 04:41:07;;;;;;;10.65;5.85;;;;;19.80;98431.00;;;;5055358;28;20385;-67
2023/10/03 04:43:34;;;;;;;7.82;5.75;;;;;19.70;98421.00;;;;5053547;28;20045;-68
2023/10/03 04:46:02;;;;;;;13.68;6.22;;;;;19.70;98423.00;;;;5055352;28;20067;-68
2023/10/03 04:48:29;;;;;;;9.00;5.20;;;;;19.80;98420.00;;;;5054241;28;20453;-68
2023/10/03 04:50:57;;;;;;;8.60;5.07;;;;;19.70;98429.00;;;;5055710;28;20633;-68
2023/10/03 04:53:23;;;;;;;7.43;5.13;;;;;19.70;98430.00;;;;5055299;28;20056;-68
2023/10/03 04:55:50;;;;;;;7.70;5.38;;;;;19.70;98424.00;;;;5054645;28;20052;-68
2023/10/03 04:58:17;;;;;;;7.60;5.22;;;;;19.70;98426.00;;;;5055217;28;20041;-68
2023/10/03 05:00:43;;;;;;;8.85;5.40;;;;;19.70;98419.00;;;;5054802;28;20037;-68
2023/10/03 05:03:10;;;;;;;9.95;5.72;;;;;19.60;98427.00;;;;5055222;28;20571;-68
2023/10/03 05:05:37;;;;;;;9.65;5.30;;;;;19.60;98427.00;;;;5054468;28;20040;-68
2023/10/03 05:08:05;;;;;;;8.52;5.30;;;;;19.60;98426.00;;;;5055088;28;20053;-68
2023/10/03 05:10:35;;;;;;;8.82;5.05;;;;;19.60;98425.00;;;;5055193;28;20075;-68
2023/10/03 05:13:02;;;;;;;9.00;6.05;;;;;19.60;98426.00;;;;5053766;28;20130;-68
2023/10/03 05:15:30;;;;;;;7.50;5.53;;;;;19.60;98420.00;;;;5054555;28;20128;-68
2023/10/03 05:18:00;;;;;;;9.10;6.20;;;;;19.60;98424.00;;;;5054710;28;20053;-68
2023/10/03 05:20:40;;;;;;;8.38;5.85;;;;;19.60;98424.00;;;;5054663;28;20056;-68
2023/10/03 05:23:07;;;;;;;10.18;5.13;;;;;19.60;98434.00;;;;5053678;28;20506;-68
2023/10/03 05:25:37;;;;;;;8.32;5.78;;;;;19.60;98428.00;;;;5052909;28;20049;-68
2023/10/03 05:28:10;;;;;;;8.27;4.93;;;;;19.60;98432.00;;;;5053805;28;20544;-68
2023/10/03 05:30:38;;;;;;;8.32;5.03;;;;;19.60;98443.00;;;;5054073;28;20039;-69
2023/10/03 05:33:06;;;;;;;6.60;5.00;;;;;19.50;98449.00;;;;5053248;28;20053;-69
2023/10/03 05:35:34;;;;;;;9.63;5.35;;;;;19.50;98435.00;;;;5053893;28;20073;-69
2023/10/03 05:38:07;;;;;;;10.73;5.65;;;;;19.60;98435.00;;;;5054339;28;20041;-69
2023/10/03 05:40:34;;;;;;;9.23;5.40;;;;;19.60;98448.00;;;;5054987;28;20125;-67
2023/10/03 05:43:04;;;;;;;9.70;5.32;;;;;19.60;98447.00;;;;5054723;28;20075;-68
2023/10/03 05:45:34;;;;;;;6.55;4.80;;;;;19.60;98446.00;;;;5054077;28;20044;-68
2023/10/03 05:48:01;;;;;;;8.38;5.40;;;;;19.60;98450.00;;;;5054294;28;20486;-67
2023/10/03 05:50:27;;;;;;;9.02;5.20;;;;;19.60;98453.00;;;;5052942;28;20045;-68
2023/10/03 05:52:55;;;;;;;9.13;5.18;;;;;19.60;98452.00;;;;5054166;28;20045;-68
2023/10/03 05:55:21;;;;;;;7.13;4.68;;;;;19.70;98448.00;;;;5053755;28;20167;-68
2023/10/03 05:57:48;;;;;;;7.85;5.25;;;;;19.70;98463.00;;;;5054018;28;20043;-68
2023/10/03 06:00:18;;;;;;;8.55;4.97;;;;;19.70;98463.00;;;;5054318;28;20139;-68
2023/10/03 06:02:47;;;;;;;7.55;5.30;;;;;19.70;98469.00;;;;5052810;28;20486;-68
2023/10/03 06:05:15;;;;;;;8.43;5.15;;;;;19.70;98469.00;;;;5053676;28;20518;-68
2023/10/03 06:07:42;;;;;;;9.07;5.57;;;;;19.70;98475.00;;;;5052853;28;20060;-68
2023/10/03 06:10:15;;;;;;;10.77;5.78;;;;;19.70;98470.00;;;;5054098;28;20049;-68
2023/10/03 06:12:42;;;;;;;8.82;5.28;;;;;19.70;98473.00;;;;5054170;28;20044;-68
2023/10/03 06:15:09;;;;;;;5.00;4.35;;;;;19.70;98465.00;;;;5053428;28;20120;-69
2023/10/03 06:17:36;;;;;;;9.48;4.78;;;;;19.70;98462.00;;;;5054061;28;20076;-71
2023/10/03 06:20:05;;;;;;;9.60;5.55;;;;;19.80;98462.00;;;;5054773;28;20486;-68
2023/10/03 06:22:33;;;;;;;11.02;5.30;;;;;19.80;98456.00;;;;5053913;28;20045;-68
2023/10/03 06:25:00;;;;;;;9.77;5.57;;;;;19.80;98472.00;;;;5052380;28;20052;-68
2023/10/03 06:27:30;;;;;;;9.90;5.47;;;;;19.90;98466.00;;;;5052572;28;20536;-68
2023/10/03 06:29:57;;;;;;;7.47;4.72;;;;;19.90;98470.00;;;;5053437;28;20445;-68
2023/10/03 06:32:23;;;;;;;11.35;5.20;;;;;20.00;98476.00;;;;5052091;28;20037;-68
2023/10/03 06:34:50;;;;;;;7.72;5.30;;;;;20.00;98464.00;;;;5051577;28;20060;-67
2023/10/03 06:37:17;;;;;;;9.80;5.47;;;;;20.10;98456.00;;;;5053220;28;20566;-68
2023/10/03 06:39:43;;;;;;;8.63;5.90;;;;;20.20;98460.00;;;;5053186;28;20094;-69
2023/10/03 06:42:10;;;;;;;8.77;4.78;;;;;20.20;98471.00;;;;5053044;28;20047;-68
2023/10/03 06:44:37;;;;;;;8.25;5.13;;;;;20.30;98480.00;;;;5052806;28;20047;-69
2023/10/03 06:47:04;;;;;;;9.52;5.57;;;;;20.30;98481.00;;;;5051242;28;20048;-68
2023/10/03 06:49:31;;;;;;;8.70;4.88;;;;;20.40;98477.00;;;;5051891;28;20091;-68
2023/10/03 06:52:00;;;;;;;7.53;5.00;;;;;20.40;98485.00;;;;5052962;28;20033;-68
2023/10/03 06:54:27;;;;;;;7.57;5.25;;;;;20.50;98479.00;;;;5052556;28;20045;-68
2023/10/03 06:56:54;;;;;;;6.18;4.65;;;;;20.50;98490.00;;;;5052867;28;20041;-68
2023/10/03 06:59:21;;;;;;;7.40;4.90;;;;;20.60;98482.00;;;;5052751;28;20041;-68
2023/10/03 07:01:48;;;;;;;14.88;5.68;;;;;20.60;98484.00;;;;5051401;28;20056;-69
2023/10/03 07:04:14;;;;;;;8.98;5.13;;;;;20.60;98493.00;;;;5052403;28;20067;-68
2023/10/03 07:06:41;;;;;;;9.40;5.50;;;;;20.60;98493.00;;;;5052684;28;20107;-69
2023/10/03 07:09:10;;;;;;;14.40;5.53;;;;;20.60;98509.00;;;;5052585;28;20052;-69
2023/10/03 07:11:38;;;;;;;10.80;5.47;;;;;20.60;98500.00;;;;5052786;28;20122;-69
2023/10/03 07:14:05;;;;;;;7.47;5.00;;;;;20.60;98496.00;;;;5051889;28;20482;-68
2023/10/03 07:16:38;;;;;;;9.05;5.63;;;;;20.60;98505.00;;;;5051526;28;20055;-68
2023/10/03 07:19:05;;;;;;;12.00;4.80;;;;;20.70;98505.00;;;;5052602;28;20127;-68
2023/10/03 07:21:35;;;;;;;10.07;5.47;;;;;20.80;98508.00;;;;5052443;28;20083;-68
2023/10/03 07:24:02;;;;;;;9.32;4.75;;;;;20.90;98502.00;;;;5051859;28;20196;-68
2023/10/03 07:26:29;;;;;;;8.23;5.18;;;;;21.10;98513.00;;;;5034803;28;20045;-66
2023/10/03 07:29:02;;;;;;;9.15;5.03;;;;;21.20;98499.00;;;;5052429;28;20036;-66
2023/10/03 07:31:29;;;;;;;;;;;;;21.30;98500.00;;;;5052947;28;20043;-67
2023/10/03 07:33:56;;;;;;;7.20;4.53;;;;;21.30;98512.00;;;;5051865;28;19931;-68
2023/10/03 07:36:23;;;;;;;8.18;5.07;;;;;21.30;98499.00;;;;5052270;28;20065;-67
2023/10/03 07:38:50;;;;;;;7.32;5.32;;;;;21.40;98495.00;;;;5034784;28;20055;-68
2023/10/03 07:41:18;;;;;;;7.07;5.18;;;;;21.40;98508.00;;;;5052025;28;20051;-68
2023/10/03 07:43:48;;;;;;;7.90;5.50;;;;;21.40;98505.00;;;;5051533;28;20045;-68
2023/10/03 07:46:22;;;;;;;8.68;5.72;;;;;21.40;98521.00;;;;5052425;28;20041;-68
2023/10/03 07:48:52;;;;;;;9.45;5.72;;;;;21.50;98519.00;;;;5051175;28;20616;-68
2023/10/03 07:51:29;;;;;;;5.97;4.95;;;;;21.40;98509.00;;;;5052357;28;20512;-68
2023/10/03 07:53:56;;;;;;;8.30;5.22;;;;;21.40;98520.00;;;;5051909;28;20048;-68
2023/10/03 07:56:29;;;;;;;20.92;5.53;;;;;21.40;98521.00;;;;5050679;28;20052;-68
2023/10/03 07:59:01;;;;;;;9.77;5.57;;;;;21.50;98523.00;;;;5051277;28;20072;-68
2023/10/03 08:01:29;;;;;;;9.53;5.27;;;;;21.50;98521.00;;;;5055207;28;20131;-67
2023/10/03 08:04:12;;;;;;;8.95;5.30;;;;;21.50;98523.00;;;;5055578;28;20052;-67
2023/10/03 08:06:41;;;;;;;7.18;5.20;;;;;21.50;98527.00;;;;5056133;28;20063;-67
2023/10/03 08:09:08;;;;;;;9.35;5.82;;;;;21.60;98526.00;;;;5056175;28;20510;-68
2023/10/03 08:11:36;;;;;;;11.70;5.22;;;;;21.60;98538.00;;;;5056092;28;20113;-68
2023/10/03 08:14:11;;;;;;;9.02;5.80;;;;;21.60;98537.00;;;;5055505;28;20048;-68
2023/10/03 08:16:40;;;;;;;8.40;5.10;;;;;21.80;98536.00;;;;5054658;28;20060;-68
2023/10/03 08:19:10;;;;;;;7.70;5.57;;;;;21.80;98529.00;;;;5056031;28;20099;-68
2023/10/03 08:21:43;;;;;;;9.48;5.57;;;;;22.00;98537.00;;;;5055842;28;20037;-68
2023/10/03 08:24:10;;;;;;;8.65;5.68;;;;;22.00;98542.00;;;;5037650;28;20049;-67
2023/10/03 08:26:37;;;;;;;11.13;5.43;;;;;22.00;98555.00;;;;5055645;28;20040;-67
2023/10/03 08:29:04;;;;;;;8.48;5.60;;;;;22.10;98551.00;;;;5054388;28;20386;-66
2023/10/03 08:31:32;;;;;;;8.85;5.90;;;;;22.10;98560.00;;;;5054355;28;20045;-67
2023/10/03 08:33:59;;;;;;;8.80;5.00;;;;;22.30;98563.00;;;;5055193;28;20055;-66
2023/10/03 08:36:31;;;;;;;10.93;6.10;;;;;22.40;98567.00;;;;5054261;28;20490;-67
2023/10/03 08:39:04;;;;;;;11.15;5.60;;;;;22.50;98574.00;;;;5055473;28;20041;-66
2023/10/03 08:41:45;;;;;;;8.60;5.28;;;;;22.60;98573.00;;;;5055524;28;20056;-66
2023/10/03 08:44:12;;;;;;;9.50;5.05;;;;;22.60;98574.00;;;;5055091;28;20052;-66
2023/10/03 08:46:49;;;;;;;8.95;5.35;;;;;22.70;98569.00;;;;5055212;28;20119;-66
2023/10/03 08:49:19;;;;;;;9.65;5.93;;;;;22.80;98574.00;;;;5054297;28;20060;-68
2023/10/03 08:51:47;;;;;;;8.25;5.38;;;;;22.90;98586.00;;;;5054261;28;20037;-67
2023/10/03 08:54:14;;;;;;;11.98;6.10;;;;;23.20;98581.00;;;;5053647;28;20044;-68
2023/10/03 08:56:41;;;;;;;11.15;5.43;;;;;23.40;98557.00;;;;5055233;28;20103;-65
2023/10/03 08:59:09;;;;;;;12.55;5.53;;;;;23.50;98567.00;;;;5037925;28;20048;-66
2023/10/03 09:01:45;;;;;;;7.05;5.07;;;;;23.70;98571.00;;;;5055204;28;20467;-66
2023/10/03 09:04:18;;;;;;;9.13;5.03;;;;;23.80;98567.00;;;;5054552;28;20037;-66
2023/10/03 09:06:46;;;;;;;11.57;5.40;;;;;23.80;98549.00;;;;5043319;28;20079;-66
2023/10/03 09:09:13;;;;;;;8.68;5.40;;;;;23.90;98567.00;;;;5051214;28;20128;-67
2023/10/03 09:11:42;;;;;;;10.60;5.35;;;;;24.00;98567.00;;;;5054838;28;20075;-66
2023/10/03 09:14:20;;;;;;;11.05;5.70;;;;;24.00;98577.00;;;;5050823;28;20041;-67
2023/10/03 09:16:50;;;;;;;9.55;5.10;;;;;24.10;98591.00;;;;5052419;28;20049;-70
2023/10/03 09:19:24;;;;;;;10.98;5.88;;;;;24.00;98591.00;;;;5061854;28;20047;-67
2023/10/03 09:21:54;;;;;;;10.02;5.80;;;;;23.90;98593.00;;;;5061259;28;20059;-68
2023/10/03 09:24:22;;;;;;;8.32;5.75;;;;;23.90;98600.00;;;;5077829;28;20043;-68
2023/10/03 09:26:51;;;;;;;9.32;5.47;;;;;24.00;98596.00;;;;5077738;28;20034;-67
2023/10/03 09:29:30;;;;;;;11.57;5.78;;;;;24.20;98604.00;;;;5077651;28;20033;-66
2023/10/03 09:32:21;;;;;;;10.40;5.85;;;;;24.20;98605.00;;;;5076603;28;20033;-69
2023/10/03 09:35:00;;;;;;;9.30;5.85;;;;;24.10;98605.00;;;;5075888;28;20045;-68
2023/10/03 09:37:30;;;;;;;9.45;6.00;;;;;24.00;98599.00;;;;5077179;28;20043;-68
2023/10/03 09:39:59;;;;;;;10.50;5.32;;;;;24.00;98603.00;;;;5075452;28;20052;-68
2023/10/03 09:42:27;;;;;;;12.50;6.18;;;;;24.00;98601.00;;;;5076298;28;20084;-66
2023/10/03 09:44:57;;;;;;;11.48;5.70;;;;;24.00;98602.00;;;;5065370;28;20049;-66
2023/10/03 09:47:34;;;;;;;11.18;5.80;;;;;24.10;98601.00;;;;5052741;28;20049;-67
2023/10/03 09:50:08;;;;;;;10.85;6.38;;;;;24.00;98604.00;;;;5053685;28;20631;-67
2023/10/03 09:52:37;;;;;;;7.38;5.05;;;;;24.00;98614.00;;;;5054206;28;20493;-67
2023/10/03 09:55:17;;;;;;;9.32;5.65;;;;;23.80;98607.00;;;;5052364;28;20501;-67
2023/10/03 09:57:46;;;;;;;10.40;5.50;;;;;23.60;98602.00;;;;5053913;28;20052;-67
2023/10/03 10:00:25;;;;;;;8.50;5.78;;;;;23.50;98604.00;;;;5054211;28;20124;-67
2023/10/03 10:02:55;;;;;;;9.20;6.05;;;;;23.40;98596.00;;;;5052634;28;20049;-68
2023/10/03 10:05:27;;;;;;;10.82;6.10;;;;;23.40;98602.00;;;;5052314;28;20045;-68
2023/10/03 10:08:17;;;;;;;13.40;6.55;;;;;23.50;98589.00;;;;5054294;28;20041;-68
2023/10/03 10:11:07;;;;;;;11.38;5.45;;;;;23.70;98593.00;;;;5057110;28;20056;-68
2023/10/03 10:13:36;;;;;;;9.23;6.10;;;;;23.80;98595.00;;;;5063972;28;20045;-68
2023/10/03 10:16:07;;;;;;;12.25;5.75;;;;;23.90;98594.00;;;;5060282;28;20104;-68
2023/10/03 10:18:44;;;;;;;8.70;5.68;;;;;24.10;98594.00;;;;5056941;28;20047;-68
2023/10/03 10:21:32;;;;;;;11.68;5.80;;;;;24.20;98585.00;;;;5055109;28;20076;-69
2023/10/03 10:24:11;;;;;;;10.68;5.20;;;;;24.20;98580.00;;;;5055453;28;20040;-68
2023/10/03 10:26:38;;;;;;;8.55;5.43;;;;;24.20;98576.00;;;;5055421;28;20049;-68
2023/10/03 10:29:08;;;;;;;11.13;5.63;;;;;24.40;98575.00;;;;5038737;28;20049;-68
2023/10/03 10:31:38;;;;;;;9.85;5.07;;;;;24.60;98580.00;;;;5055846;28;20049;-67
2023/10/03 10:34:20;;;;;;;8.02;5.03;;;;;24.90;98600.00;;;;5053435;28;20048;-66
2023/10/03 10:37:09;;;;;;;7.47;4.90;;;;;25.00;98578.00;;;;5056001;28;20063;-66
2023/10/03 10:40:10;;;;;;;9.13;5.05;;;;;25.10;98582.00;;;;5052368;28;20044;-66
2023/10/03 10:43:11;;;;;;;11.80;5.50;;;;;25.40;98584.00;;;;5053093;28;20047;-66
2023/10/03 10:45:38;;;;;;;8.98;5.30;;;;;25.50;98600.00;;;;5052572;28;20566;-66
2023/10/03 10:48:06;;;;;;;9.25;4.80;;;;;25.50;98593.00;;;;5052971;28;20053;-66
2023/10/03 10:51:04;;;;;;;9.15;5.40;;;;;25.60;98596.00;;;;5052824;28;20452;-66
2023/10/03 10:53:37;;;;;;;13.98;5.28;;;;;25.50;98583.00;;;;5051071;28;20128;-66
2023/10/03 10:56:08;;;;;;;9.85;5.05;;;;;25.50;98599.00;;;;5052776;28;20053;-66
2023/10/03 10:59:01;;;;;;;9.30;4.95;;;;;25.40;98604.00;;;;5052659;28;20040;-66
2023/10/03 11:01:37;;;;;;;17.00;4.88;;;;;25.50;98587.00;;;;5052513;28;20128;-66
2023/10/03 11:04:05;;;;;;;9.75;4.55;;;;;25.40;98582.00;;;;5052202;28;20399;-66
2023/10/03 11:06:32;;;;;;;9.05;5.05;;;;;25.40;98593.00;;;;5051328;28;20490;-66
2023/10/03 11:08:59;;;;;;;10.50;5.32;;;;;25.50;98590.00;;;;5052633;28;20051;-66
2023/10/03 11:11:36;;;;;;;9.70;5.05;;;;;25.60;98598.00;;;;5052519;28;20540;-66
2023/10/03 11:14:02;;;;;;;8.07;4.78;;;;;25.60;98582.00;;;;5050778;28;20128;-65
2023/10/03 11:16:29;;;;;;;8.65;5.18;;;;;25.60;98582.00;;;;5052570;28;20044;-65
2023/10/03 11:18:57;;;;;;;9.00;5.13;;;;;25.70;98574.00;;;;5052440;28;20119;-65
2023/10/03 11:21:24;;;;;;;9.10;5.10;;;;;25.70;98582.00;;;;5052489;28;20048;-66
2023/10/03 11:24:19;;;;;;;9.50;5.93;;;;;25.80;98576.00;;;;5051748;28;20072;-66
2023/10/03 11:26:48;;;;;;;10.25;6.55;;;;;25.90;98575.00;;;;5051360;28;20147;-66
2023/10/03 11:29:37;;;;;;;6.72;4.55;;;;;26.00;98567.00;;;;5051062;28;20041;-65
2023/10/03 11:32:05;;;;;;;6.32;4.15;;;;;26.10;98567.00;;;;5052063;28;20051;-65
2023/10/03 11:34:38;;;;;;;7.05;4.55;;;;;26.20;98574.00;;;;5050276;28;20049;-67
2023/10/03 11:37:04;;;;;;;12.02;4.15;;;;;26.20;98574.00;;;;5052291;28;20049;-65
2023/10/03 11:39:38;;;;;;;7.07;4.13;;;;;26.20;98567.00;;;;5052123;28;20048;-65
2023/10/03 11:42:22;;;;;;;8.23;4.15;;;;;26.00;98576.00;;;;5050784;28;20114;-66
2023/10/03 11:44:57;;;;;;;9.38;4.25;;;;;25.80;98565.00;;;;5050311;28;20432;-67
2023/10/03 11:47:24;;;;;;;8.40;4.60;;;;;25.70;98568.00;;;;5052036;28;20047;-67
2023/10/03 11:49:51;;;;;;;10.82;5.30;;;;;25.60;98565.00;;;;5050910;28;20487;-67
2023/10/03 11:52:18;;;;;;;7.40;4.10;;;;;25.50;98564.00;;;;5052049;28;20033;-65
2023/10/03 11:54:45;;;;;;;7.75;4.13;;;;;25.40;98558.00;;;;5051479;28;20120;-65
2023/10/03 11:57:13;;;;;;;9.25;4.45;;;;;25.40;98556.00;;;;5052007;28;20585;-66
2023/10/03 11:59:43;;;;;;;7.90;4.03;;;;;25.40;98553.00;;;;5052721;28;20049;-66
2023/10/03 12:02:11;;;;;;;11.38;4.10;;;;;25.40;98550.00;;;;5052136;28;20075;-67
2023/10/03 12:04:38;;;;;;;8.45;3.83;;;;;25.30;98550.00;;;;5050094;28;20047;-66
2023/10/03 12:07:05;;;;;;;7.45;3.75;;;;;25.20;98546.00;;;;5052083;28;20130;-66
2023/10/03 12:09:31;;;;;;;8.07;3.67;;;;;25.10;98537.00;;;;5050740;28;20079;-66
2023/10/03 12:11:58;;;;;;;7.45;4.25;;;;;25.10;98531.00;;;;5051716;28;20077;-67
2023/10/03 12:14:24;;;;;;;8.27;3.72;;;;;25.10;98530.00;;;;5051417;28;20048;-66
2023/10/03 12:16:54;;;;;;;9.68;4.05;;;;;25.20;98530.00;;;;5050627;28;20098;-66
2023/10/03 12:19:21;;;;;;;8.15;4.43;;;;;25.20;98526.00;;;;5050662;28;20053;-66
2023/10/03 12:21:47;;;;;;;8.43;3.95;;;;;25.10;98543.00;;;;5052211;28;20518;-66
2023/10/03 12:24:14;;;;;;;7.22;3.90;;;;;25.00;98546.00;;;;5050548;28;20490;-67
2023/10/03 12:26:41;;;;;;;10.25;4.00;;;;;24.80;98554.00;;;;5050764;28;20102;-66
2023/10/03 12:29:07;;;;;;;8.20;4.70;;;;;24.80;98551.00;;;;5050870;28;20053;-66
2023/10/03 12:31:34;;;;;;;11.35;3.95;;;;;24.70;98547.00;;;;5051800;28;20560;-66
2023/10/03 12:34:01;;;;;;;8.35;3.65;;;;;24.50;98557.00;;;;5051407;28;20490;-66